sensor_id;sensor_type;location;lat;lon;timestamp;P1;durP1;ratioP1;P2;durP2;ratioP2
30896;SDS011;64229;52.246;21.054;2024-02-15T00:02:01;13.73;;;6.75;;
30896;SDS011;64229;52.246;21.054;2024-02-15T00:04:26;19.50;;;6.43;;
30896;SDS011;64229;52.246;21.054;2024-02-15T00:06:51;17.80;;;6.82;;
30896;SDS011;64229;52.246;21.054;2024-02-15T00:09:17;18.35;;;7.32;;
30896;SDS011;64229;52.246;21.054;2024-02-15T00:11:43;17.77;;;6.93;;
30896;SDS011;64229;52.246;21.054;2024-02-15T00:14:08;17.13;;;7.10;;
30896;SDS011;64229;52.246;21.054;2024-02-15T00:16:34;17.83;;;7.38;;
30896;SDS011;64229;52.246;21.054;2024-02-15T00:19:00;17.67;;;6.90;;
30896;SDS011;64229;52.246;21.054;2024-02-15T00:21:26;16.10;;;6.93;;
30896;SDS011;64229;52.246;21.054;2024-02-15T00:23:52;16.48;;;7.40;;
30896;SDS011;64229;52.246;21.054;2024-02-15T00:26:19;16.65;;;7.22;;
30896;SDS011;64229;52.246;21.054;2024-02-15T00:28:45;16.92;;;6.32;;
30896;SDS011;64229;52.246;21.054;2024-02-15T00:31:11;19.00;;;6.85;;
30896;SDS011;64229;52.246;21.054;2024-02-15T00:33:36;13.93;;;6.68;;
30896;SDS011;64229;52.246;21.054;2024-02-15T00:36:02;13.73;;;6.47;;
30896;SDS011;64229;52.246;21.054;2024-02-15T00:38:28;18.45;;;6.95;;
30896;SDS011;64229;52.246;21.054;2024-02-15T00:40:54;16.02;;;7.38;;
30896;SDS011;64229;52.246;21.054;2024-02-15T00:43:19;17.70;;;7.40;;
30896;SDS011;64229;52.246;21.054;2024-02-15T00:45:45;17.90;;;7.20;;
30896;SDS011;64229;52.246;21.054;2024-02-15T00:48:10;19.05;;;6.82;;
30896;SDS011;64229;52.246;21.054;2024-02-15T00:50:35;15.23;;;6.68;;
30896;SDS011;64229;52.246;21.054;2024-02-15T00:53:01;14.50;;;6.47;;
30896;SDS011;64229;52.246;21.054;2024-02-15T00:55:26;15.02;;;6.80;;
30896;SDS011;64229;52.246;21.054;2024-02-15T00:57:51;18.23;;;6.97;;
30896;SDS011;64229;52.246;21.054;2024-02-15T01:00:16;16.27;;;6.97;;
30896;SDS011;64229;52.246;21.054;2024-02-15T01:02:42;16.40;;;6.35;;
30896;SDS011;64229;52.246;21.054;2024-02-15T01:05:07;15.82;;;6.53;;
30896;SDS011;64229;52.246;21.054;2024-02-15T01:07:34;17.42;;;7.00;;
30896;SDS011;64229;52.246;21.054;2024-02-15T01:10:00;19.55;;;7.03;;
30896;SDS011;64229;52.246;21.054;2024-02-15T01:12:25;15.65;;;7.15;;
30896;SDS011;64229;52.246;21.054;2024-02-15T01:14:51;14.68;;;6.90;;
30896;SDS011;64229;52.246;21.054;2024-02-15T01:17:16;14.48;;;6.93;;
30896;SDS011;64229;52.246;21.054;2024-02-15T01:19:42;18.55;;;7.13;;
30896;SDS011;64229;52.246;21.054;2024-02-15T01:22:07;19.40;;;6.90;;
30896;SDS011;64229;52.246;21.054;2024-02-15T01:24:32;15.90;;;6.65;;
30896;SDS011;64229;52.246;21.054;2024-02-15T01:26:58;14.70;;;6.45;;
30896;SDS011;64229;52.246;21.054;2024-02-15T01:29:23;13.60;;;6.03;;
30896;SDS011;64229;52.246;21.054;2024-02-15T01:31:50;15.32;;;6.85;;
30896;SDS011;64229;52.246;21.054;2024-02-15T01:34:15;15.85;;;6.85;;
30896;SDS011;64229;52.246;21.054;2024-02-15T01:36:41;13.82;;;6.40;;
30896;SDS011;64229;52.246;21.054;2024-02-15T01:39:06;25.67;;;6.83;;
30896;SDS011;64229;52.246;21.054;2024-02-15T01:41:32;14.30;;;6.72;;
30896;SDS011;64229;52.246;21.054;2024-02-15T01:43:57;15.15;;;6.80;;
30896;SDS011;64229;52.246;21.054;2024-02-15T01:46:22;18.50;;;6.82;;
30896;SDS011;64229;52.246;21.054;2024-02-15T01:48:48;13.35;;;6.22;;
30896;SDS011;64229;52.246;21.054;2024-02-15T01:51:14;17.67;;;6.65;;
30896;SDS011;64229;52.246;21.054;2024-02-15T01:53:41;20.60;;;6.90;;
30896;SDS011;64229;52.246;21.054;2024-02-15T01:56:07;17.33;;;6.10;;
30896;SDS011;64229;52.246;21.054;2024-02-15T01:58:33;12.55;;;5.47;;
30896;SDS011;64229;52.246;21.054;2024-02-15T02:00:59;19.15;;;5.78;;
30896;SDS011;64229;52.246;21.054;2024-02-15T02:03:26;16.75;;;6.28;;
30896;SDS011;64229;52.246;21.054;2024-02-15T02:05:51;14.93;;;6.53;;
30896;SDS011;64229;52.246;21.054;2024-02-15T02:08:17;15.93;;;6.32;;
30896;SDS011;64229;52.246;21.054;2024-02-15T02:10:43;15.23;;;6.47;;
30896;SDS011;64229;52.246;21.054;2024-02-15T02:13:10;17.83;;;6.55;;
30896;SDS011;64229;52.246;21.054;2024-02-15T02:15:36;18.50;;;7.03;;
30896;SDS011;64229;52.246;21.054;2024-02-15T02:18:02;15.30;;;5.85;;
30896;SDS011;64229;52.246;21.054;2024-02-15T02:20:31;21.48;;;6.53;;
30896;SDS011;64229;52.246;21.054;2024-02-15T02:23:00;18.15;;;6.85;;
30896;SDS011;64229;52.246;21.054;2024-02-15T02:25:32;14.68;;;5.97;;
30896;SDS011;64229;52.246;21.054;2024-02-15T02:27:58;15.52;;;6.47;;
30896;SDS011;64229;52.246;21.054;2024-02-15T02:30:24;15.95;;;6.68;;
30896;SDS011;64229;52.246;21.054;2024-02-15T02:32:54;18.77;;;6.38;;
30896;SDS011;64229;52.246;21.054;2024-02-15T02:35:19;14.40;;;6.50;;
30896;SDS011;64229;52.246;21.054;2024-02-15T02:37:45;14.40;;;7.28;;
30896;SDS011;64229;52.246;21.054;2024-02-15T02:40:11;20.17;;;6.82;;
30896;SDS011;64229;52.246;21.054;2024-02-15T02:42:52;17.88;;;6.90;;
30896;SDS011;64229;52.246;21.054;2024-02-15T02:45:18;19.27;;;7.25;;
30896;SDS011;64229;52.246;21.054;2024-02-15T02:47:48;15.18;;;6.28;;
30896;SDS011;64229;52.246;21.054;2024-02-15T02:50:14;13.50;;;6.18;;
30896;SDS011;64229;52.246;21.054;2024-02-15T02:52:40;18.40;;;7.65;;
30896;SDS011;64229;52.246;21.054;2024-02-15T02:55:05;15.48;;;6.53;;
30896;SDS011;64229;52.246;21.054;2024-02-15T02:57:34;15.43;;;6.35;;
30896;SDS011;64229;52.246;21.054;2024-02-15T03:00:02;16.58;;;6.95;;
30896;SDS011;64229;52.246;21.054;2024-02-15T03:02:37;18.02;;;7.82;;
30896;SDS011;64229;52.246;21.054;2024-02-15T03:05:03;19.02;;;7.25;;
30896;SDS011;64229;52.246;21.054;2024-02-15T03:07:32;14.27;;;6.63;;
30896;SDS011;64229;52.246;21.054;2024-02-15T03:09:57;18.73;;;7.32;;
30896;SDS011;64229;52.246;21.054;2024-02-15T03:12:23;19.03;;;7.07;;
30896;SDS011;64229;52.246;21.054;2024-02-15T03:14:48;16.57;;;7.10;;
30896;SDS011;64229;52.246;21.054;2024-02-15T03:17:13;15.48;;;6.47;;
30896;SDS011;64229;52.246;21.054;2024-02-15T03:19:38;15.07;;;6.50;;
30896;SDS011;64229;52.246;21.054;2024-02-15T03:22:04;17.30;;;7.67;;
30896;SDS011;64229;52.246;21.054;2024-02-15T03:24:29;17.67;;;8.00;;
30896;SDS011;64229;52.246;21.054;2024-02-15T03:26:54;14.30;;;6.60;;
30896;SDS011;64229;52.246;21.054;2024-02-15T03:29:20;16.20;;;8.00;;
30896;SDS011;64229;52.246;21.054;2024-02-15T03:31:46;17.83;;;8.15;;
30896;SDS011;64229;52.246;21.054;2024-02-15T03:34:13;19.58;;;7.88;;
30896;SDS011;64229;52.246;21.054;2024-02-15T03:36:40;18.52;;;7.13;;
30896;SDS011;64229;52.246;21.054;2024-02-15T03:39:06;16.55;;;7.30;;
30896;SDS011;64229;52.246;21.054;2024-02-15T03:41:31;15.95;;;6.85;;
30896;SDS011;64229;52.246;21.054;2024-02-15T03:43:57;15.52;;;6.90;;
30896;SDS011;64229;52.246;21.054;2024-02-15T03:46:24;18.45;;;7.07;;
30896;SDS011;64229;52.246;21.054;2024-02-15T03:48:50;19.48;;;7.65;;
30896;SDS011;64229;52.246;21.054;2024-02-15T03:51:16;17.25;;;7.03;;
30896;SDS011;64229;52.246;21.054;2024-02-15T03:53:43;16.48;;;7.20;;
30896;SDS011;64229;52.246;21.054;2024-02-15T03:56:09;15.32;;;6.97;;
30896;SDS011;64229;52.246;21.054;2024-02-15T03:58:34;14.73;;;6.97;;
30896;SDS011;64229;52.246;21.054;2024-02-15T04:01:01;21.85;;;8.30;;
30896;SDS011;64229;52.246;21.054;2024-02-15T04:03:29;16.33;;;7.45;;
30896;SDS011;64229;52.246;21.054;2024-02-15T04:05:57;18.35;;;6.93;;
30896;SDS011;64229;52.246;21.054;2024-02-15T04:08:22;16.55;;;7.10;;
30896;SDS011;64229;52.246;21.054;2024-02-15T04:10:48;16.77;;;7.55;;
30896;SDS011;64229;52.246;21.054;2024-02-15T04:13:13;17.15;;;7.78;;
30896;SDS011;64229;52.246;21.054;2024-02-15T04:15:39;22.10;;;8.07;;
30896;SDS011;64229;52.246;21.054;2024-02-15T04:18:04;18.42;;;7.68;;
30896;SDS011;64229;52.246;21.054;2024-02-15T04:20:29;16.45;;;6.65;;
30896;SDS011;64229;52.246;21.054;2024-02-15T04:22:54;17.75;;;7.28;;
30896;SDS011;64229;52.246;21.054;2024-02-15T04:25:21;16.80;;;7.43;;
30896;SDS011;64229;52.246;21.054;2024-02-15T04:27:52;17.15;;;7.53;;
30896;SDS011;64229;52.246;21.054;2024-02-15T04:30:17;23.65;;;7.72;;
30896;SDS011;64229;52.246;21.054;2024-02-15T04:32:44;17.33;;;6.97;;
30896;SDS011;64229;52.246;21.054;2024-02-15T04:35:09;16.08;;;7.40;;
30896;SDS011;64229;52.246;21.054;2024-02-15T04:37:35;17.17;;;7.60;;
30896;SDS011;64229;52.246;21.054;2024-02-15T04:40:02;18.88;;;7.45;;
30896;SDS011;64229;52.246;21.054;2024-02-15T04:42:34;17.45;;;7.07;;
30896;SDS011;64229;52.246;21.054;2024-02-15T04:45:04;21.00;;;7.60;;
30896;SDS011;64229;52.246;21.054;2024-02-15T04:47:33;18.60;;;7.60;;
30896;SDS011;64229;52.246;21.054;2024-02-15T04:49:59;20.77;;;7.90;;
30896;SDS011;64229;52.246;21.054;2024-02-15T04:52:24;19.98;;;7.45;;
30896;SDS011;64229;52.246;21.054;2024-02-15T04:54:50;20.17;;;7.43;;
30896;SDS011;64229;52.246;21.054;2024-02-15T04:57:15;15.90;;;7.53;;
30896;SDS011;64229;52.246;21.054;2024-02-15T04:59:41;17.23;;;7.38;;
30896;SDS011;64229;52.246;21.054;2024-02-15T05:02:11;16.90;;;7.70;;
30896;SDS011;64229;52.246;21.054;2024-02-15T05:04:37;14.55;;;7.45;;
30896;SDS011;64229;52.246;21.054;2024-02-15T05:07:02;15.27;;;7.50;;
30896;SDS011;64229;52.246;21.054;2024-02-15T05:09:28;19.55;;;7.93;;
30896;SDS011;64229;52.246;21.054;2024-02-15T05:11:56;22.05;;;7.60;;
30896;SDS011;64229;52.246;21.054;2024-02-15T05:14:22;24.00;;;7.13;;
30896;SDS011;64229;52.246;21.054;2024-02-15T05:16:48;16.63;;;7.22;;
30896;SDS011;64229;52.246;21.054;2024-02-15T05:19:15;18.00;;;7.65;;
30896;SDS011;64229;52.246;21.054;2024-02-15T05:21:41;14.57;;;7.25;;
30896;SDS011;64229;52.246;21.054;2024-02-15T05:24:09;18.98;;;7.93;;
30896;SDS011;64229;52.246;21.054;2024-02-15T05:26:35;16.67;;;7.90;;
30896;SDS011;64229;52.246;21.054;2024-02-15T05:29:01;18.75;;;7.82;;
30896;SDS011;64229;52.246;21.054;2024-02-15T05:31:26;17.60;;;8.05;;
30896;SDS011;64229;52.246;21.054;2024-02-15T05:33:52;16.73;;;7.30;;
30896;SDS011;64229;52.246;21.054;2024-02-15T05:36:18;17.63;;;7.82;;
30896;SDS011;64229;52.246;21.054;2024-02-15T05:38:46;17.00;;;8.25;;
30896;SDS011;64229;52.246;21.054;2024-02-15T05:41:13;16.73;;;7.43;;
30896;SDS011;64229;52.246;21.054;2024-02-15T05:43:39;17.42;;;7.47;;
30896;SDS011;64229;52.246;21.054;2024-02-15T05:46:06;16.55;;;7.40;;
30896;SDS011;64229;52.246;21.054;2024-02-15T05:48:32;16.45;;;7.45;;
30896;SDS011;64229;52.246;21.054;2024-02-15T05:51:00;19.17;;;7.95;;
30896;SDS011;64229;52.246;21.054;2024-02-15T05:53:28;17.60;;;7.97;;
30896;SDS011;64229;52.246;21.054;2024-02-15T05:55:54;18.20;;;7.97;;
30896;SDS011;64229;52.246;21.054;2024-02-15T05:58:20;19.70;;;7.68;;
30896;SDS011;64229;52.246;21.054;2024-02-15T06:00:46;14.60;;;7.38;;
30896;SDS011;64229;52.246;21.054;2024-02-15T06:03:14;17.58;;;7.47;;
30896;SDS011;64229;52.246;21.054;2024-02-15T06:05:39;17.88;;;7.72;;
30896;SDS011;64229;52.246;21.054;2024-02-15T06:08:05;16.60;;;7.15;;
30896;SDS011;64229;52.246;21.054;2024-02-15T06:10:30;14.20;;;7.70;;
30896;SDS011;64229;52.246;21.054;2024-02-15T06:12:56;18.63;;;8.30;;
30896;SDS011;64229;52.246;21.054;2024-02-15T06:15:23;20.88;;;8.18;;
30896;SDS011;64229;52.246;21.054;2024-02-15T06:17:48;21.75;;;8.02;;
30896;SDS011;64229;52.246;21.054;2024-02-15T06:20:14;18.23;;;7.47;;
30896;SDS011;64229;52.246;21.054;2024-02-15T06:22:42;20.42;;;8.35;;
30896;SDS011;64229;52.246;21.054;2024-02-15T06:25:08;19.73;;;8.35;;
30896;SDS011;64229;52.246;21.054;2024-02-15T06:27:34;20.88;;;7.78;;
30896;SDS011;64229;52.246;21.054;2024-02-15T06:30:05;21.48;;;9.07;;
30896;SDS011;64229;52.246;21.054;2024-02-15T06:35:34;20.05;;;9.15;;
30896;SDS011;64229;52.246;21.054;2024-02-15T06:38:17;22.15;;;8.73;;
30896;SDS011;64229;52.246;21.054;2024-02-15T06:41:01;22.13;;;10.23;;
30896;SDS011;64229;52.246;21.054;2024-02-15T06:43:27;22.00;;;10.57;;
30896;SDS011;64229;52.246;21.054;2024-02-15T06:45:53;20.95;;;10.65;;
30896;SDS011;64229;52.246;21.054;2024-02-15T06:48:18;26.65;;;10.43;;
30896;SDS011;64229;52.246;21.054;2024-02-15T06:50:43;28.20;;;11.70;;
30896;SDS011;64229;52.246;21.054;2024-02-15T06:53:13;27.10;;;11.77;;
30896;SDS011;64229;52.246;21.054;2024-02-15T06:55:38;23.80;;;11.50;;
30896;SDS011;64229;52.246;21.054;2024-02-15T06:58:04;27.23;;;11.73;;
30896;SDS011;64229;52.246;21.054;2024-02-15T07:00:30;25.60;;;11.40;;
30896;SDS011;64229;52.246;21.054;2024-02-15T07:02:56;27.70;;;12.32;;
30896;SDS011;64229;52.246;21.054;2024-02-15T07:05:21;34.72;;;12.68;;
30896;SDS011;64229;52.246;21.054;2024-02-15T07:07:48;28.52;;;13.18;;
30896;SDS011;64229;52.246;21.054;2024-02-15T07:10:14;34.90;;;13.40;;
30896;SDS011;64229;52.246;21.054;2024-02-15T07:12:41;28.67;;;12.35;;
30896;SDS011;64229;52.246;21.054;2024-02-15T07:15:09;27.33;;;12.07;;
30896;SDS011;64229;52.246;21.054;2024-02-15T07:17:34;28.98;;;12.48;;
30896;SDS011;64229;52.246;21.054;2024-02-15T07:20:02;32.10;;;13.80;;
30896;SDS011;64229;52.246;21.054;2024-02-15T07:22:30;31.42;;;13.10;;
30896;SDS011;64229;52.246;21.054;2024-02-15T07:24:56;32.20;;;13.18;;
30896;SDS011;64229;52.246;21.054;2024-02-15T07:27:21;28.33;;;12.90;;
30896;SDS011;64229;52.246;21.054;2024-02-15T07:29:50;25.67;;;13.15;;
30896;SDS011;64229;52.246;21.054;2024-02-15T07:32:16;32.90;;;15.00;;
30896;SDS011;64229;52.246;21.054;2024-02-15T07:34:42;31.17;;;14.05;;
30896;SDS011;64229;52.246;21.054;2024-02-15T07:37:08;37.05;;;14.65;;
30896;SDS011;64229;52.246;21.054;2024-02-15T07:39:34;34.03;;;13.85;;
30896;SDS011;64229;52.246;21.054;2024-02-15T07:42:01;29.88;;;13.93;;
30896;SDS011;64229;52.246;21.054;2024-02-15T07:44:29;33.20;;;14.00;;
30896;SDS011;64229;52.246;21.054;2024-02-15T07:46:57;34.70;;;15.07;;
30896;SDS011;64229;52.246;21.054;2024-02-15T07:49:25;39.75;;;14.93;;
30896;SDS011;64229;52.246;21.054;2024-02-15T07:51:50;32.05;;;14.43;;
30896;SDS011;64229;52.246;21.054;2024-02-15T07:54:18;33.95;;;14.65;;
30896;SDS011;64229;52.246;21.054;2024-02-15T07:56:46;35.55;;;15.90;;
30896;SDS011;64229;52.246;21.054;2024-02-15T07:59:14;37.40;;;16.30;;
30896;SDS011;64229;52.246;21.054;2024-02-15T08:01:42;40.47;;;15.93;;
30896;SDS011;64229;52.246;21.054;2024-02-15T08:04:12;32.67;;;16.40;;
30896;SDS011;64229;52.246;21.054;2024-02-15T08:06:37;40.55;;;16.52;;
30896;SDS011;64229;52.246;21.054;2024-02-15T08:09:03;39.45;;;16.60;;
30896;SDS011;64229;52.246;21.054;2024-02-15T08:11:32;35.75;;;16.67;;
30896;SDS011;64229;52.246;21.054;2024-02-15T08:13:57;40.00;;;17.30;;
30896;SDS011;64229;52.246;21.054;2024-02-15T08:16:24;41.53;;;16.80;;
30896;SDS011;64229;52.246;21.054;2024-02-15T08:18:52;38.13;;;17.83;;
30896;SDS011;64229;52.246;21.054;2024-02-15T08:21:24;43.55;;;18.23;;
30896;SDS011;64229;52.246;21.054;2024-02-15T08:23:51;42.40;;;18.35;;
30896;SDS011;64229;52.246;21.054;2024-02-15T08:26:16;45.28;;;18.98;;
30896;SDS011;64229;52.246;21.054;2024-02-15T08:28:42;43.57;;;18.20;;
30896;SDS011;64229;52.246;21.054;2024-02-15T08:31:07;43.20;;;20.13;;
30896;SDS011;64229;52.246;21.054;2024-02-15T08:33:33;49.15;;;19.70;;
30896;SDS011;64229;52.246;21.054;2024-02-15T08:35:58;45.42;;;19.83;;
30896;SDS011;64229;52.246;21.054;2024-02-15T08:38:26;44.83;;;19.92;;
30896;SDS011;64229;52.246;21.054;2024-02-15T08:40:51;43.30;;;20.40;;
30896;SDS011;64229;52.246;21.054;2024-02-15T08:43:17;52.50;;;20.30;;
30896;SDS011;64229;52.246;21.054;2024-02-15T08:45:42;48.88;;;21.13;;
30896;SDS011;64229;52.246;21.054;2024-02-15T08:48:08;56.60;;;21.27;;
30896;SDS011;64229;52.246;21.054;2024-02-15T08:50:33;50.45;;;21.35;;
30896;SDS011;64229;52.246;21.054;2024-02-15T08:52:59;48.53;;;22.35;;
30896;SDS011;64229;52.246;21.054;2024-02-15T08:55:24;46.92;;;21.35;;
30896;SDS011;64229;52.246;21.054;2024-02-15T08:57:52;47.58;;;21.55;;
30896;SDS011;64229;52.246;21.054;2024-02-15T09:00:18;48.70;;;21.52;;
30896;SDS011;64229;52.246;21.054;2024-02-15T09:02:47;59.28;;;22.65;;
30896;SDS011;64229;52.246;21.054;2024-02-15T09:05:13;53.63;;;22.75;;
30896;SDS011;64229;52.246;21.054;2024-02-15T09:07:43;57.95;;;24.05;;
30896;SDS011;64229;52.246;21.054;2024-02-15T09:10:12;46.97;;;22.65;;
30896;SDS011;64229;52.246;21.054;2024-02-15T09:12:39;57.72;;;23.48;;
30896;SDS011;64229;52.246;21.054;2024-02-15T09:15:05;55.60;;;24.27;;
30896;SDS011;64229;52.246;21.054;2024-02-15T09:17:35;52.55;;;22.10;;
30896;SDS011;64229;52.246;21.054;2024-02-15T09:20:05;61.47;;;24.48;;
30896;SDS011;64229;52.246;21.054;2024-02-15T09:22:43;54.63;;;23.33;;
30896;SDS011;64229;52.246;21.054;2024-02-15T09:25:14;54.25;;;23.02;;
30896;SDS011;64229;52.246;21.054;2024-02-15T09:27:41;55.33;;;22.85;;
30896;SDS011;64229;52.246;21.054;2024-02-15T09:30:07;51.83;;;22.58;;
30896;SDS011;64229;52.246;21.054;2024-02-15T09:32:34;56.50;;;22.58;;
30896;SDS011;64229;52.246;21.054;2024-02-15T09:35:02;59.47;;;24.23;;
30896;SDS011;64229;52.246;21.054;2024-02-15T09:37:28;55.22;;;23.55;;
30896;SDS011;64229;52.246;21.054;2024-02-15T09:39:55;52.72;;;22.63;;
30896;SDS011;64229;52.246;21.054;2024-02-15T09:42:20;58.67;;;25.70;;
30896;SDS011;64229;52.246;21.054;2024-02-15T09:44:46;61.20;;;26.02;;
30896;SDS011;64229;52.246;21.054;2024-02-15T09:47:12;50.67;;;23.42;;
30896;SDS011;64229;52.246;21.054;2024-02-15T09:49:40;59.67;;;24.50;;
30896;SDS011;64229;52.246;21.054;2024-02-15T09:52:08;58.67;;;23.93;;
30896;SDS011;64229;52.246;21.054;2024-02-15T09:54:41;62.92;;;24.90;;
30896;SDS011;64229;52.246;21.054;2024-02-15T09:57:10;62.95;;;23.17;;
30896;SDS011;64229;52.246;21.054;2024-02-15T09:59:37;61.58;;;25.50;;
30896;SDS011;64229;52.246;21.054;2024-02-15T10:02:02;54.38;;;22.73;;
30896;SDS011;64229;52.246;21.054;2024-02-15T10:04:28;58.92;;;23.70;;
30896;SDS011;64229;52.246;21.054;2024-02-15T10:06:54;61.95;;;24.02;;
30896;SDS011;64229;52.246;21.054;2024-02-15T10:09:26;54.58;;;23.90;;
30896;SDS011;64229;52.246;21.054;2024-02-15T10:11:59;64.03;;;24.23;;
30896;SDS011;64229;52.246;21.054;2024-02-15T10:14:26;52.50;;;23.90;;
30896;SDS011;64229;52.246;21.054;2024-02-15T10:16:53;62.63;;;23.92;;
30896;SDS011;64229;52.246;21.054;2024-02-15T10:19:19;56.13;;;24.08;;
30896;SDS011;64229;52.246;21.054;2024-02-15T10:21:50;62.80;;;25.25;;
30896;SDS011;64229;52.246;21.054;2024-02-15T10:24:17;57.10;;;24.23;;
30896;SDS011;64229;52.246;21.054;2024-02-15T10:26:44;63.42;;;24.88;;
30896;SDS011;64229;52.246;21.054;2024-02-15T10:29:13;60.78;;;24.15;;
30896;SDS011;64229;52.246;21.054;2024-02-15T10:31:40;62.50;;;25.42;;
30896;SDS011;64229;52.246;21.054;2024-02-15T10:34:17;59.20;;;24.73;;
30896;SDS011;64229;52.246;21.054;2024-02-15T10:36:44;58.80;;;25.60;;
30896;SDS011;64229;52.246;21.054;2024-02-15T10:39:13;56.75;;;25.25;;
30896;SDS011;64229;52.246;21.054;2024-02-15T10:41:42;57.78;;;25.17;;
30896;SDS011;64229;52.246;21.054;2024-02-15T10:44:09;57.88;;;25.08;;
30896;SDS011;64229;52.246;21.054;2024-02-15T10:46:36;56.78;;;25.52;;
30896;SDS011;64229;52.246;21.054;2024-02-15T10:49:02;57.42;;;24.92;;
30896;SDS011;64229;52.246;21.054;2024-02-15T10:51:28;62.97;;;26.42;;
30896;SDS011;64229;52.246;21.054;2024-02-15T10:53:57;61.45;;;27.40;;
30896;SDS011;64229;52.246;21.054;2024-02-15T10:56:36;69.82;;;26.67;;
30896;SDS011;64229;52.246;21.054;2024-02-15T10:59:10;54.47;;;24.25;;
30896;SDS011;64229;52.246;21.054;2024-02-15T11:01:43;55.42;;;24.45;;
30896;SDS011;64229;52.246;21.054;2024-02-15T11:04:11;62.58;;;26.00;;
30896;SDS011;64229;52.246;21.054;2024-02-15T11:06:39;61.03;;;24.42;;
30896;SDS011;64229;52.246;21.054;2024-02-15T11:09:07;64.10;;;26.08;;
30896;SDS011;64229;52.246;21.054;2024-02-15T11:11:33;63.55;;;28.23;;
30896;SDS011;64229;52.246;21.054;2024-02-15T11:16:48;57.03;;;24.65;;
30896;SDS011;64229;52.246;21.054;2024-02-15T11:19:57;60.13;;;24.80;;
30896;SDS011;64229;52.246;21.054;2024-02-15T11:22:13;57.72;;;25.80;;
30896;SDS011;64229;52.246;21.054;2024-02-15T11:24:47;57.65;;;25.40;;
30896;SDS011;64229;52.246;21.054;2024-02-15T11:27:14;60.60;;;25.17;;
30896;SDS011;64229;52.246;21.054;2024-02-15T11:29:49;61.53;;;23.88;;
30896;SDS011;64229;52.246;21.054;2024-02-15T11:32:38;66.68;;;27.10;;
30896;SDS011;64229;52.246;21.054;2024-02-15T11:40:12;62.45;;;26.48;;
30896;SDS011;64229;52.246;21.054;2024-02-15T11:42:38;58.78;;;26.67;;
30896;SDS011;64229;52.246;21.054;2024-02-15T11:45:05;60.63;;;26.73;;
30896;SDS011;64229;52.246;21.054;2024-02-15T11:47:32;65.95;;;28.17;;
30896;SDS011;64229;52.246;21.054;2024-02-15T11:50:02;60.42;;;27.40;;
30896;SDS011;64229;52.246;21.054;2024-02-15T11:52:28;57.90;;;26.63;;
30896;SDS011;64229;52.246;21.054;2024-02-15T11:54:53;62.47;;;26.52;;
30896;SDS011;64229;52.246;21.054;2024-02-15T11:57:18;58.80;;;27.02;;
30896;SDS011;64229;52.246;21.054;2024-02-15T12:00:01;59.85;;;28.33;;
30896;SDS011;64229;52.246;21.054;2024-02-15T12:03:03;64.18;;;27.05;;
30896;SDS011;64229;52.246;21.054;2024-02-15T12:05:49;55.28;;;25.17;;
30896;SDS011;64229;52.246;21.054;2024-02-15T12:08:33;56.83;;;25.73;;
30896;SDS011;64229;52.246;21.054;2024-02-15T12:11:17;56.13;;;26.83;;
30896;SDS011;64229;52.246;21.054;2024-02-15T12:14:01;68.28;;;25.23;;
30896;SDS011;64229;52.246;21.054;2024-02-15T12:16:45;71.97;;;27.02;;
30896;SDS011;64229;52.246;21.054;2024-02-15T12:19:29;61.70;;;25.77;;
30896;SDS011;64229;52.246;21.054;2024-02-15T12:21:54;57.60;;;25.67;;
30896;SDS011;64229;52.246;21.054;2024-02-15T12:24:22;54.60;;;24.83;;
30896;SDS011;64229;52.246;21.054;2024-02-15T12:26:52;54.53;;;24.90;;
30896;SDS011;64229;52.246;21.054;2024-02-15T12:29:24;60.97;;;24.55;;
30896;SDS011;64229;52.246;21.054;2024-02-15T12:31:49;60.15;;;25.33;;
30896;SDS011;64229;52.246;21.054;2024-02-15T12:34:15;52.58;;;24.38;;
30896;SDS011;64229;52.246;21.054;2024-02-15T12:36:45;54.47;;;23.48;;
30896;SDS011;64229;52.246;21.054;2024-02-15T12:39:10;55.88;;;24.42;;
30896;SDS011;64229;52.246;21.054;2024-02-15T12:41:40;53.53;;;24.20;;
30896;SDS011;64229;52.246;21.054;2024-02-15T12:44:12;59.13;;;23.52;;
30896;SDS011;64229;52.246;21.054;2024-02-15T12:46:41;49.70;;;23.73;;
30896;SDS011;64229;52.246;21.054;2024-02-15T12:49:12;56.28;;;23.45;;
30896;SDS011;64229;52.246;21.054;2024-02-15T12:51:53;51.47;;;24.30;;
30896;SDS011;64229;52.246;21.054;2024-02-15T12:54:20;52.22;;;22.70;;
30896;SDS011;64229;52.246;21.054;2024-02-15T12:56:46;51.85;;;23.60;;
30896;SDS011;64229;52.246;21.054;2024-02-15T12:59:14;53.13;;;23.85;;
30896;SDS011;64229;52.246;21.054;2024-02-15T13:01:40;56.65;;;23.40;;
30896;SDS011;64229;52.246;21.054;2024-02-15T13:04:05;50.85;;;23.27;;
30896;SDS011;64229;52.246;21.054;2024-02-15T13:06:31;52.85;;;22.27;;
30896;SDS011;64229;52.246;21.054;2024-02-15T13:09:00;50.00;;;23.23;;
30896;SDS011;64229;52.246;21.054;2024-02-15T13:11:25;56.65;;;23.27;;
30896;SDS011;64229;52.246;21.054;2024-02-15T13:13:51;49.45;;;23.00;;
30896;SDS011;64229;52.246;21.054;2024-02-15T13:16:17;47.50;;;21.33;;
30896;SDS011;64229;52.246;21.054;2024-02-15T13:18:43;44.78;;;21.45;;
30896;SDS011;64229;52.246;21.054;2024-02-15T13:21:12;46.22;;;21.60;;
30896;SDS011;64229;52.246;21.054;2024-02-15T13:23:37;47.92;;;21.65;;
30896;SDS011;64229;52.246;21.054;2024-02-15T13:26:02;47.78;;;22.52;;
30896;SDS011;64229;52.246;21.054;2024-02-15T13:28:29;42.60;;;20.08;;
30896;SDS011;64229;52.246;21.054;2024-02-15T13:30:55;47.05;;;21.10;;
30896;SDS011;64229;52.246;21.054;2024-02-15T13:33:21;48.10;;;21.58;;
30896;SDS011;64229;52.246;21.054;2024-02-15T13:35:46;42.47;;;19.40;;
30896;SDS011;64229;52.246;21.054;2024-02-15T13:38:14;50.10;;;20.80;;
30896;SDS011;64229;52.246;21.054;2024-02-15T13:40:47;39.60;;;18.13;;
30896;SDS011;64229;52.246;21.054;2024-02-15T13:43:14;42.53;;;18.48;;
30896;SDS011;64229;52.246;21.054;2024-02-15T13:45:41;42.65;;;18.52;;
30896;SDS011;64229;52.246;21.054;2024-02-15T13:48:09;49.15;;;19.27;;
30896;SDS011;64229;52.246;21.054;2024-02-15T13:50:37;39.63;;;18.30;;
30896;SDS011;64229;52.246;21.054;2024-02-15T13:53:03;39.83;;;18.10;;
30896;SDS011;64229;52.246;21.054;2024-02-15T13:55:29;41.30;;;17.45;;
30896;SDS011;64229;52.246;21.054;2024-02-15T13:57:55;35.92;;;17.25;;
30896;SDS011;64229;52.246;21.054;2024-02-15T14:00:21;42.20;;;17.88;;
30896;SDS011;64229;52.246;21.054;2024-02-15T14:02:56;38.40;;;16.75;;
30896;SDS011;64229;52.246;21.054;2024-02-15T14:05:24;36.80;;;17.25;;
30896;SDS011;64229;52.246;21.054;2024-02-15T14:07:54;36.88;;;16.55;;
30896;SDS011;64229;52.246;21.054;2024-02-15T14:10:20;44.00;;;17.27;;
30896;SDS011;64229;52.246;21.054;2024-02-15T14:12:56;37.80;;;16.50;;
30896;SDS011;64229;52.246;21.054;2024-02-15T14:15:26;39.30;;;16.02;;
30896;SDS011;64229;52.246;21.054;2024-02-15T14:17:51;36.13;;;16.63;;
30896;SDS011;64229;52.246;21.054;2024-02-15T14:20:17;38.33;;;17.90;;
30896;SDS011;64229;52.246;21.054;2024-02-15T14:22:44;36.55;;;16.65;;
30896;SDS011;64229;52.246;21.054;2024-02-15T14:25:14;39.85;;;17.17;;
30896;SDS011;64229;52.246;21.054;2024-02-15T14:27:42;41.22;;;17.02;;